createdAt,value
2023-04-09T00:00:55.497Z,11.13
2023-04-09T00:03:23.464Z,12.10
2023-04-09T00:05:52.270Z,17.00
2023-04-09T00:08:24.151Z,9.70
2023-04-09T00:10:52.291Z,14.95
2023-04-09T00:13:25.463Z,10.63
2023-04-09T00:16:04.126Z,13.90
2023-04-09T00:18:31.840Z,15.52
2023-04-09T00:20:59.489Z,16.88
2023-04-09T00:23:27.342Z,22.33
2023-04-09T00:25:55.021Z,13.48
2023-04-09T00:28:22.607Z,10.13
2023-04-09T00:30:50.433Z,9.77
2023-04-09T00:33:18.168Z,11.82
2023-04-09T00:35:45.964Z,18.08
2023-04-09T00:38:14.365Z,9.60
2023-04-09T00:40:42.212Z,10.77
2023-04-09T00:43:09.867Z,13.65
2023-04-09T00:45:37.614Z,13.60
2023-04-09T00:48:05.344Z,10.50
2023-04-09T00:50:32.935Z,13.45
2023-04-09T00:53:00.704Z,12.02
2023-04-09T00:55:28.512Z,11.35
2023-04-09T00:57:56.123Z,8.93
2023-04-09T01:00:24.104Z,146.68
2023-04-09T01:02:51.864Z,105.20
2023-04-09T01:05:19.668Z,56.55
2023-04-09T01:07:47.405Z,34.10
2023-04-09T01:10:15.016Z,15.33
2023-04-09T01:12:42.671Z,10.38
2023-04-09T01:15:10.370Z,14.98
2023-04-09T01:17:37.934Z,13.55
2023-04-09T01:20:05.512Z,16.10
2023-04-09T01:22:50.323Z,12.20
2023-04-09T01:25:18.437Z,12.13
2023-04-09T01:27:46.013Z,15.25
2023-04-09T01:30:13.956Z,14.85
2023-04-09T01:32:44.369Z,9.18
2023-04-09T01:35:12.110Z,13.20
2023-04-09T01:37:39.950Z,12.48
2023-04-09T01:40:07.559Z,12.30
2023-04-09T01:42:35.391Z,11.57
2023-04-09T01:45:03.115Z,11.25
2023-04-09T01:47:30.820Z,10.77
2023-04-09T01:49:58.429Z,12.52
2023-04-09T01:52:27.052Z,11.57
2023-04-09T01:54:54.663Z,13.43
2023-04-09T01:57:22.238Z,11.70
2023-04-09T01:59:49.904Z,10.75
2023-04-09T02:02:17.614Z,13.80
2023-04-09T02:04:45.476Z,13.07
2023-04-09T02:07:13.279Z,12.35
2023-04-09T02:09:40.894Z,11.75
2023-04-09T02:12:08.524Z,11.30
2023-04-09T02:14:36.340Z,13.18
2023-04-09T02:17:03.994Z,12.00
2023-04-09T02:19:31.782Z,13.63
2023-04-09T02:21:59.591Z,12.13
2023-04-09T02:24:27.158Z,11.20
2023-04-09T02:26:54.771Z,15.10
2023-04-09T02:29:22.707Z,11.85
2023-04-09T02:31:50.347Z,13.13
2023-04-09T02:34:17.948Z,10.80
2023-04-09T02:36:45.877Z,12.25
2023-04-09T02:39:13.468Z,11.20
2023-04-09T02:41:41.041Z,11.32
2023-04-09T02:44:09.090Z,10.95
2023-04-09T02:46:36.716Z,16.77
2023-04-09T02:49:05.256Z,13.20
2023-04-09T02:51:33.135Z,13.80
2023-04-09T02:54:00.756Z,14.45
2023-04-09T02:56:28.348Z,12.80
2023-04-09T02:58:56.412Z,13.57
2023-04-09T03:01:24.235Z,15.60
2023-04-09T03:03:52.690Z,12.05
2023-04-09T03:06:20.757Z,11.95
2023-04-09T03:08:48.464Z,15.55
2023-04-09T03:11:16.225Z,14.13
2023-04-09T03:13:44.081Z,14.70
2023-04-09T03:16:11.885Z,14.48
2023-04-09T03:18:39.497Z,13.23
2023-04-09T03:21:07.254Z,14.65
2023-04-09T03:23:34.975Z,12.73
2023-04-09T03:26:02.561Z,16.83
2023-04-09T03:28:30.987Z,17.40
2023-04-09T03:30:59.571Z,13.45
2023-04-09T03:33:27.139Z,15.18
2023-04-09T03:35:55.239Z,14.73
2023-04-09T03:38:23.076Z,11.90
2023-04-09T03:40:50.674Z,14.23
2023-04-09T03:43:18.576Z,13.25
2023-04-09T03:45:46.293Z,16.95
2023-04-09T03:48:14.911Z,11.70
2023-04-09T03:50:42.699Z,17.38
2023-04-09T03:53:11.104Z,17.42
2023-04-09T03:55:39.590Z,16.58
2023-04-09T03:58:07.569Z,14.48
2023-04-09T04:00:35.157Z,13.45
2023-04-09T04:03:03.091Z,11.20
2023-04-09T04:05:31.162Z,14.35
2023-04-09T04:07:58.740Z,14.13
2023-04-09T04:10:26.354Z,13.57
2023-04-09T04:12:54.116Z,15.82
2023-04-09T04:15:21.811Z,14.68
2023-04-09T04:17:49.524Z,15.68
2023-04-09T04:20:17.392Z,11.60
2023-04-09T04:22:45.064Z,13.27
2023-04-09T04:25:12.709Z,13.30
2023-04-09T04:27:40.537Z,14.98
2023-04-09T04:30:10.657Z,14.32
2023-04-09T04:32:38.362Z,13.13
2023-04-09T04:35:06.313Z,15.60
2023-04-09T04:37:33.940Z,12.43
2023-04-09T04:40:01.712Z,14.73
2023-04-09T04:42:30.274Z,11.27
2023-04-09T04:44:57.867Z,12.05
2023-04-09T04:47:25.583Z,14.45
2023-04-09T04:49:54.385Z,13.20
2023-04-09T04:52:22.064Z,15.20
2023-04-09T04:54:49.733Z,13.82
2023-04-09T04:57:18.484Z,12.18
2023-04-09T04:59:46.136Z,15.98
2023-04-09T05:02:13.881Z,14.18
2023-04-09T05:04:42.591Z,15.15
2023-04-09T05:07:10.228Z,15.73
2023-04-09T05:09:37.870Z,17.17
2023-04-09T05:12:06.558Z,15.43
2023-04-09T05:14:34.180Z,13.98
2023-04-09T05:17:01.789Z,14.32
2023-04-09T05:19:29.882Z,15.38
2023-04-09T05:21:57.473Z,12.23
2023-04-09T05:24:25.217Z,13.98
2023-04-09T05:26:53.346Z,17.08
2023-04-09T05:29:20.972Z,15.40
2023-04-09T05:31:48.585Z,14.02
2023-04-09T05:34:17.164Z,12.95
2023-04-09T05:36:44.761Z,15.27
2023-04-09T05:39:24.372Z,14.10
2023-04-09T05:41:52.490Z,15.07
2023-04-09T05:44:20.112Z,14.95
2023-04-09T05:46:47.729Z,13.38
2023-04-09T05:49:16.620Z,14.60
2023-04-09T05:51:44.279Z,14.20
2023-04-09T05:54:11.925Z,15.05
2023-04-09T05:56:40.481Z,13.23
2023-04-09T05:59:08.084Z,14.02
2023-04-09T06:01:35.978Z,16.52
2023-04-09T06:04:04.648Z,14.32
2023-04-09T06:06:32.612Z,13.38
2023-04-09T06:09:00.207Z,14.23
2023-04-09T06:11:28.373Z,15.13
2023-04-09T06:13:55.972Z,16.83
2023-04-09T06:16:23.947Z,15.13
2023-04-09T06:18:52.261Z,15.20
2023-04-09T06:21:20.040Z,13.27
2023-04-09T06:23:47.678Z,13.73
2023-04-09T06:26:16.278Z,13.35
2023-04-09T06:28:44.047Z,13.25
2023-04-09T06:31:12.033Z,13.60
2023-04-09T06:33:40.045Z,15.35
2023-04-09T06:36:09.434Z,14.10
2023-04-09T06:38:37.158Z,15.40
2023-04-09T06:41:05.813Z,14.40
2023-04-09T06:43:33.436Z,13.20
2023-04-09T06:46:01.120Z,21.17
2023-04-09T06:48:30.293Z,13.45
2023-04-09T06:50:57.930Z,12.35
2023-04-09T06:53:25.671Z,13.35
2023-04-09T06:55:56.549Z,15.98
2023-04-09T06:58:25.536Z,13.38
2023-04-09T07:00:53.267Z,17.02
2023-04-09T07:03:23.606Z,14.30
2023-04-09T07:05:51.286Z,15.60
2023-04-09T07:08:18.929Z,14.50
2023-04-09T07:10:46.958Z,14.27
2023-04-09T07:13:15.152Z,14.20
2023-04-09T07:15:43.242Z,13.77
2023-04-09T07:18:12.797Z,14.77
2023-04-09T07:20:40.367Z,14.50
2023-04-09T07:23:07.989Z,16.83
2023-04-09T07:25:36.755Z,16.02
2023-04-09T07:28:04.447Z,18.13
2023-04-09T07:30:32.273Z,16.80
2023-04-09T07:33:00.917Z,13.43
2023-04-09T07:35:28.650Z,13.43
2023-04-09T07:37:56.356Z,14.43
2023-04-09T07:40:24.530Z,14.68
2023-04-09T07:42:52.103Z,13.95
2023-04-09T07:45:19.755Z,16.02
2023-04-09T07:47:47.768Z,13.35
2023-04-09T07:50:15.387Z,15.68
2023-04-09T07:52:43.104Z,15.20
2023-04-09T07:55:12.117Z,16.52
2023-04-09T07:57:39.870Z,16.65
2023-04-09T08:00:07.858Z,15.93
2023-04-09T08:02:36.638Z,15.27
2023-04-09T08:05:04.389Z,14.52
2023-04-09T08:07:32.971Z,17.65
2023-04-09T08:10:01.560Z,14.65
2023-04-09T08:12:29.605Z,17.42
2023-04-09T08:14:57.337Z,14.63
2023-04-09T08:17:26.105Z,15.32
2023-04-09T08:19:53.849Z,16.42
2023-04-09T08:22:21.513Z,18.60
2023-04-09T08:24:49.640Z,17.05
2023-04-09T08:27:17.230Z,15.75
2023-04-09T08:29:44.906Z,17.05
2023-04-09T08:32:13.712Z,17.48
2023-04-09T08:34:41.366Z,16.95
2023-04-09T08:37:08.968Z,14.52
2023-04-09T08:39:37.089Z,15.88
2023-04-09T08:42:04.730Z,16.73
2023-04-09T08:44:32.384Z,18.80
2023-04-09T08:47:00.791Z,13.95
2023-04-09T08:49:28.406Z,13.20
2023-04-09T08:51:56.266Z,14.57
2023-04-09T08:54:25.371Z,13.45
2023-04-09T08:56:53.039Z,13.63
2023-04-09T08:59:20.707Z,15.50
2023-04-09T09:01:49.268Z,19.17
2023-04-09T09:04:16.900Z,18.42
2023-04-09T09:06:45.279Z,14.98
2023-04-09T09:09:13.315Z,15.50
2023-04-09T09:11:40.927Z,15.10
2023-04-09T09:14:12.045Z,15.20
2023-04-09T09:16:41.255Z,16.10
2023-04-09T09:19:08.856Z,17.10
2023-04-09T09:21:36.488Z,16.15
2023-04-09T09:24:05.310Z,15.02
2023-04-09T09:26:33.003Z,17.02
2023-04-09T09:29:00.618Z,16.45
2023-04-09T09:31:28.977Z,17.38
2023-04-09T09:33:56.669Z,14.32
2023-04-09T09:36:24.762Z,18.17
2023-04-09T09:38:53.179Z,17.27
2023-04-09T09:41:21.357Z,14.38
2023-04-09T09:43:48.990Z,18.45
2023-04-09T09:46:17.851Z,15.18
2023-04-09T09:48:45.513Z,14.15
2023-04-09T09:51:13.212Z,15.77
2023-04-09T09:53:41.232Z,16.00
2023-04-09T09:56:08.899Z,13.70
2023-04-09T09:58:36.489Z,15.07
2023-04-09T10:01:05.183Z,14.25
2023-04-09T10:03:33.007Z,18.27
2023-04-09T10:06:03.585Z,15.00
2023-04-09T10:08:32.282Z,14.45
2023-04-09T10:10:59.853Z,17.85
2023-04-09T10:13:27.477Z,17.30
2023-04-09T10:15:55.557Z,20.02
2023-04-09T10:18:23.240Z,20.13
2023-04-09T10:20:50.861Z,22.45
2023-04-09T10:23:18.935Z,16.27
2023-04-09T10:25:46.570Z,19.77
2023-04-09T10:28:14.198Z,18.02
2023-04-09T10:30:42.851Z,21.15
2023-04-09T10:33:10.663Z,22.35
2023-04-09T10:35:38.357Z,18.55
2023-04-09T10:38:06.398Z,18.73
2023-04-09T10:40:33.999Z,18.17
2023-04-09T10:43:01.651Z,18.10
2023-04-09T10:45:29.610Z,17.85
2023-04-09T10:47:57.458Z,15.98
2023-04-09T10:50:25.025Z,18.95
2023-04-09T10:52:53.066Z,18.42
2023-04-09T10:55:20.666Z,20.38
2023-04-09T10:57:48.386Z,19.35
2023-04-09T11:00:16.956Z,26.63
2023-04-09T11:02:44.890Z,19.85
2023-04-09T11:05:12.778Z,18.13
2023-04-09T11:07:40.719Z,21.02
2023-04-09T11:10:08.392Z,22.27
2023-04-09T11:12:35.992Z,19.52
2023-04-09T11:15:19.450Z,23.02
2023-04-09T11:17:47.823Z,17.55
2023-04-09T11:20:15.614Z,16.70
2023-04-09T11:22:44.426Z,18.70
2023-04-09T11:25:12.240Z,22.70
2023-04-09T11:27:39.987Z,18.98
2023-04-09T11:30:08.697Z,23.08
2023-04-09T11:32:36.418Z,23.40
2023-04-09T11:35:04.080Z,21.27
2023-04-09T11:37:32.290Z,27.25
2023-04-09T11:39:59.976Z,22.70
2023-04-09T11:42:27.656Z,23.02
2023-04-09T11:44:56.297Z,23.23
2023-04-09T11:47:23.922Z,32.15
2023-04-09T11:49:51.621Z,25.10
2023-04-09T11:52:20.296Z,27.90
2023-04-09T11:54:47.987Z,22.20
2023-04-09T11:57:15.581Z,26.63
2023-04-09T11:59:44.530Z,20.95
2023-04-09T12:02:12.238Z,23.20
2023-04-09T12:04:39.990Z,22.80
2023-04-09T12:07:08.167Z,26.65
2023-04-09T12:09:35.866Z,29.48
2023-04-09T12:12:03.460Z,23.00
2023-04-09T12:14:31.448Z,23.35
2023-04-09T12:16:59.084Z,27.70
2023-04-09T12:19:26.786Z,26.33
2023-04-09T12:21:54.891Z,26.63
2023-04-09T12:24:22.962Z,26.85
2023-04-09T12:26:50.669Z,30.48
2023-04-09T12:29:18.658Z,35.65
2023-04-09T12:31:46.333Z,27.98
2023-04-09T12:34:13.922Z,29.17
2023-04-09T12:36:42.597Z,27.42
2023-04-09T12:39:10.435Z,33.58
2023-04-09T12:41:38.039Z,32.05
2023-04-09T12:44:06.123Z,34.42
2023-04-09T12:46:33.852Z,29.00
2023-04-09T12:49:01.515Z,32.17
2023-04-09T12:51:29.520Z,31.83
2023-04-09T12:53:57.178Z,37.55
2023-04-09T12:56:24.764Z,35.83
2023-04-09T12:58:53.036Z,40.65
2023-04-09T13:01:20.855Z,33.25
2023-04-09T13:03:48.790Z,35.40
2023-04-09T13:06:16.855Z,32.67
2023-04-09T13:08:44.477Z,38.15
2023-04-09T13:11:12.111Z,31.92
2023-04-09T13:13:42.514Z,34.67
2023-04-09T13:16:10.341Z,30.27
2023-04-09T13:18:37.987Z,30.45
2023-04-09T13:21:06.443Z,31.98
2023-04-09T13:23:34.011Z,28.40
2023-04-09T13:26:01.645Z,33.92
2023-04-09T13:28:29.702Z,28.73
2023-04-09T13:30:57.598Z,27.15
2023-04-09T13:33:25.240Z,26.77
2023-04-09T13:35:53.768Z,31.08
2023-04-09T13:38:21.440Z,28.98
2023-04-09T13:40:49.264Z,32.55
2023-04-09T13:43:17.213Z,25.40
2023-04-09T13:45:44.784Z,32.83
2023-04-09T13:48:14.710Z,30.85
2023-04-09T13:50:43.486Z,35.40
2023-04-09T13:53:11.304Z,31.10
2023-04-09T13:55:38.947Z,35.28
2023-04-09T13:58:07.102Z,36.22
2023-04-09T14:00:34.857Z,41.00
2023-04-09T14:03:02.623Z,33.83
2023-04-09T14:05:31.562Z,38.60
2023-04-09T14:07:59.209Z,31.05
2023-04-09T14:10:26.806Z,34.53
2023-04-09T14:12:55.021Z,35.17
2023-04-09T14:15:22.658Z,29.55
2023-04-09T14:17:50.369Z,30.27
2023-04-09T14:20:19.904Z,35.75
2023-04-09T14:22:47.551Z,31.23
2023-04-09T14:25:15.151Z,32.30
2023-04-09T14:27:44.088Z,29.80
2023-04-09T14:30:11.677Z,32.55
2023-04-09T14:32:39.388Z,29.25
2023-04-09T14:35:09.267Z,36.70
2023-04-09T14:37:36.920Z,27.52
2023-04-09T14:40:04.484Z,33.10
2023-04-09T14:42:32.639Z,27.95
2023-04-09T14:45:00.255Z,28.95
2023-04-09T14:47:28.046Z,34.47
2023-04-09T14:49:56.103Z,26.20
2023-04-09T14:52:23.970Z,28.42
2023-04-09T14:54:51.653Z,31.20
2023-04-09T14:57:19.799Z,27.15
2023-04-09T14:59:47.410Z,29.92
2023-04-09T15:02:15.191Z,28.85
2023-04-09T15:04:43.527Z,28.08
2023-04-09T15:07:11.206Z,28.00
2023-04-09T15:09:38.964Z,24.50
2023-04-09T15:12:07.297Z,27.38
2023-04-09T15:14:34.890Z,27.42
2023-04-09T15:17:03.488Z,27.27
2023-04-09T15:19:31.522Z,26.52
2023-04-09T15:21:59.134Z,29.15
2023-04-09T15:24:26.900Z,26.60
2023-04-09T15:26:55.049Z,30.63
2023-04-09T15:29:22.953Z,27.13
2023-04-09T15:31:50.559Z,28.13
2023-04-09T15:34:19.784Z,32.95
2023-04-09T15:36:47.489Z,33.63
2023-04-09T15:39:15.050Z,35.30
2023-04-09T15:41:43.754Z,33.53
2023-04-09T15:44:11.328Z,31.88
2023-04-09T15:46:38.953Z,32.97
2023-04-09T15:49:06.892Z,38.22
2023-04-09T15:51:34.510Z,33.45
2023-04-09T15:54:02.048Z,33.65
2023-04-09T15:56:30.696Z,34.05
2023-04-09T15:58:58.240Z,31.67
2023-04-09T16:01:26.141Z,33.50
2023-04-09T16:03:54.144Z,37.30
2023-04-09T16:06:21.960Z,32.60
2023-04-09T16:08:49.604Z,29.95
2023-04-09T16:11:17.581Z,40.33
2023-04-09T16:13:45.152Z,34.05
2023-04-09T16:16:12.821Z,34.40
2023-04-09T16:18:40.790Z,33.08
2023-04-09T16:21:08.384Z,32.88
2023-04-09T16:23:36.029Z,35.97
2023-04-09T16:26:05.162Z,40.33
2023-04-09T16:28:32.796Z,33.78
2023-04-09T16:31:00.467Z,37.28
2023-04-09T16:33:28.293Z,42.40
2023-04-09T16:35:56.156Z,35.28
2023-04-09T16:38:23.965Z,39.58
2023-04-09T16:40:51.658Z,36.85
2023-04-09T16:43:19.278Z,36.03
2023-04-09T16:45:46.897Z,39.20
2023-04-09T16:48:14.880Z,38.67
2023-04-09T16:50:42.539Z,31.23
2023-04-09T16:53:10.245Z,36.30
2023-04-09T16:55:38.212Z,31.70
2023-04-09T16:58:05.804Z,36.47
2023-04-09T17:00:33.357Z,27.90
2023-04-09T17:03:01.159Z,26.35
2023-04-09T17:05:28.935Z,26.45
2023-04-09T17:07:56.504Z,34.30
2023-04-09T17:10:24.286Z,29.83
2023-04-09T17:12:51.931Z,33.22
2023-04-09T17:15:19.504Z,31.27
2023-04-09T17:17:47.242Z,27.98
2023-04-09T17:20:15.087Z,29.65
2023-04-09T17:22:42.716Z,29.55
2023-04-09T17:25:10.479Z,31.27
2023-04-09T17:27:38.062Z,27.55
2023-04-09T17:30:05.574Z,29.05
2023-04-09T17:32:33.870Z,28.33
2023-04-09T17:35:01.442Z,29.23
2023-04-09T17:37:29.039Z,29.30
2023-04-09T17:39:56.915Z,27.75
2023-04-09T17:42:24.493Z,28.77
2023-04-09T17:44:52.154Z,29.42
2023-04-09T17:47:20.171Z,28.38
2023-04-09T17:49:47.759Z,25.20
2023-04-09T17:52:15.205Z,26.92
2023-04-09T17:54:45.094Z,32.78
2023-04-09T17:57:13.329Z,32.80
2023-04-09T17:59:41.079Z,29.48
2023-04-09T18:02:09.240Z,26.50
2023-04-09T18:04:41.378Z,26.27
2023-04-09T18:07:12.306Z,29.08
2023-04-09T18:09:40.178Z,28.80
2023-04-09T18:12:08.696Z,29.88
2023-04-09T18:14:37.926Z,32.35
2023-04-09T18:17:05.856Z,27.35
2023-04-09T18:19:35.649Z,31.10
2023-04-09T18:22:03.790Z,31.60
2023-04-09T18:24:31.542Z,26.95
2023-04-09T18:26:59.222Z,32.33
2023-04-09T18:29:26.957Z,28.25
2023-04-09T18:31:54.528Z,27.73
2023-04-09T18:34:22.388Z,31.55
2023-04-09T18:36:51.179Z,27.45
2023-04-09T18:39:18.729Z,27.67
2023-04-09T18:41:46.278Z,28.30
2023-04-09T18:44:14.075Z,29.60
2023-04-09T18:46:41.658Z,27.13
2023-04-09T18:49:09.266Z,29.40
2023-04-09T18:51:37.031Z,32.92
2023-04-09T18:54:04.609Z,30.13
2023-04-09T18:56:32.245Z,29.33
2023-04-09T18:58:59.994Z,26.27
2023-04-09T19:01:27.621Z,32.83
2023-04-09T19:03:55.498Z,31.45
2023-04-09T19:06:25.160Z,28.80
2023-04-09T19:08:52.991Z,28.10
2023-04-09T19:11:20.976Z,29.48
2023-04-09T19:13:48.690Z,33.28
2023-04-09T19:16:16.310Z,31.27
2023-04-09T19:18:44.634Z,33.28
2023-04-09T19:21:12.331Z,29.92
2023-04-09T19:23:40.002Z,28.02
2023-04-09T19:26:07.596Z,30.60
2023-04-09T19:28:35.689Z,28.90
2023-04-09T19:31:04.048Z,28.67
2023-04-09T19:33:31.632Z,36.35
2023-04-09T19:36:00.048Z,33.47
2023-04-09T19:38:30.151Z,32.72
2023-04-09T19:40:57.872Z,27.88
2023-04-09T19:43:29.454Z,27.77
2023-04-09T19:45:57.180Z,27.77
2023-04-09T19:48:24.768Z,28.42
2023-04-09T19:50:52.928Z,32.78
2023-04-09T19:53:20.833Z,31.52
2023-04-09T19:55:49.287Z,30.90
2023-04-09T19:58:17.109Z,30.27
2023-04-09T20:00:44.836Z,31.40
2023-04-09T20:03:13.029Z,31.75
2023-04-09T20:05:41.176Z,32.15
2023-04-09T20:08:11.819Z,30.13
2023-04-09T20:10:42.064Z,30.33
2023-04-09T20:13:10.485Z,34.83
2023-04-09T20:15:38.080Z,33.25
2023-04-09T20:18:06.173Z,29.17
2023-04-09T20:20:34.461Z,34.50
2023-04-09T20:23:07.064Z,32.63
2023-04-09T20:25:40.273Z,33.10
2023-04-09T20:28:08.661Z,30.67
2023-04-09T20:30:45.558Z,35.65
2023-04-09T20:33:13.329Z,30.30
2023-04-09T20:35:40.938Z,33.13
2023-04-09T20:38:08.579Z,33.50
2023-04-09T20:40:36.623Z,30.58
2023-04-09T20:43:08.524Z,32.15
2023-04-09T20:45:36.348Z,29.70
2023-04-09T20:48:08.590Z,27.67
2023-04-09T20:50:36.369Z,32.65
2023-04-09T20:53:03.891Z,34.42
2023-04-09T20:55:31.805Z,31.33
2023-04-09T20:57:59.746Z,29.85
2023-04-09T21:00:27.382Z,33.03
2023-04-09T21:02:55.279Z,31.58
2023-04-09T21:05:24.151Z,31.42
2023-04-09T21:08:10.160Z,32.35
2023-04-09T21:10:57.948Z,33.90
2023-04-09T21:13:54.386Z,34.10
2023-04-09T21:16:42.697Z,31.50
2023-04-09T21:19:30.564Z,32.47
2023-04-09T21:22:18.326Z,33.72
2023-04-09T21:25:06.165Z,31.75
2023-04-09T21:27:53.938Z,34.78
2023-04-09T21:30:41.880Z,34.67
2023-04-09T21:33:30.151Z,32.13
2023-04-09T21:36:18.224Z,32.70
2023-04-09T21:39:06.015Z,35.72
2023-04-09T21:41:54.015Z,33.75
2023-04-09T21:44:41.789Z,32.08
2023-04-09T21:47:29.777Z,34.17
2023-04-09T21:50:17.659Z,36.83
2023-04-09T21:53:05.650Z,41.58
2023-04-09T21:55:53.455Z,34.38
2023-04-09T21:58:41.284Z,36.75
2023-04-09T22:01:29.601Z,32.53
2023-04-09T22:04:17.869Z,37.22
2023-04-09T22:07:05.690Z,35.55
2023-04-09T22:09:53.871Z,37.33
2023-04-09T22:12:41.646Z,35.90
2023-04-09T22:15:29.870Z,34.72
2023-04-09T22:18:17.658Z,38.40
2023-04-09T22:21:05.570Z,35.70
2023-04-09T22:23:53.311Z,40.88
2023-04-09T22:26:41.306Z,40.22
2023-04-09T22:29:29.074Z,35.90
2023-04-09T22:32:17.060Z,37.92
2023-04-09T22:35:04.818Z,36.83
2023-04-09T22:37:42.985Z,35.15
2023-04-09T22:40:16.824Z,34.47
2023-04-09T22:42:44.476Z,36.67
2023-04-09T22:45:12.326Z,35.95
2023-04-09T22:47:47.558Z,46.72
2023-04-09T22:50:24.603Z,53.33
2023-04-09T22:52:53.741Z,46.22
2023-04-09T22:55:29.072Z,41.20
2023-04-09T22:57:59.137Z,37.83
2023-04-09T23:00:28.022Z,45.42
2023-04-09T23:03:08.961Z,68.10
2023-04-09T23:05:48.432Z,83.53
2023-04-09T23:08:21.780Z,78.40
2023-04-09T23:10:50.415Z,74.93
2023-04-09T23:13:23.895Z,60.42
2023-04-09T23:15:52.968Z,61.83
2023-04-09T23:18:22.279Z,58.90
2023-04-09T23:20:50.223Z,54.35
2023-04-09T23:23:18.501Z,53.28
2023-04-09T23:25:52.542Z,59.95
2023-04-09T23:28:21.375Z,50.60
2023-04-09T23:30:57.563Z,50.10
2023-04-09T23:33:25.887Z,47.85
2023-04-09T23:35:54.865Z,45.53
2023-04-09T23:38:23.036Z,49.58
2023-04-09T23:40:50.861Z,46.35
2023-04-09T23:43:20.364Z,54.60
2023-04-09T23:45:48.608Z,52.92
2023-04-09T23:48:16.400Z,49.70
2023-04-09T23:50:47.313Z,51.88
2023-04-09T23:53:15.233Z,52.97
2023-04-09T23:55:44.534Z,55.63
2023-04-09T23:58:12.927Z,53.60
